createdAt,value
2018-05-18T00:00:38.761Z,28.8
2018-05-18T00:01:29.048Z,28.8
2018-05-18T00:02:18.561Z,28.9
2018-05-18T00:03:09.240Z,28.8
2018-05-18T00:03:58.666Z,28.8
2018-05-18T00:04:49.096Z,28.8
2018-05-18T00:05:39.373Z,28.8
2018-05-18T00:06:29.165Z,28.8
2018-05-18T00:07:19.510Z,28.8
2018-05-18T00:08:09.002Z,28.8
2018-05-18T00:08:59.103Z,28.8
2018-05-18T00:09:49.413Z,28.8
2018-05-18T00:10:39.218Z,28.8
2018-05-18T00:11:29.820Z,28.8
2018-05-18T00:12:19.045Z,28.8
2018-05-18T00:13:09.658Z,28.8
2018-05-18T00:13:59.166Z,28.8
2018-05-18T00:14:49.787Z,28.8
2018-05-18T00:15:39.897Z,28.8
2018-05-18T00:16:30.263Z,28.8
2018-05-18T00:17:20.247Z,28.8
2018-05-18T00:18:09.757Z,28.8
2018-05-18T00:19:00.380Z,28.8
2018-05-18T00:19:49.618Z,28.8
2018-05-18T00:20:40.249Z,28.8
2018-05-18T00:21:30.045Z,28.8
2018-05-18T00:22:20.673Z,28.8
2018-05-18T00:23:10.413Z,28.8
2018-05-18T00:24:00.812Z,28.8
2018-05-18T00:24:50.794Z,28.7
2018-05-18T00:25:40.893Z,28.8
2018-05-18T00:26:30.669Z,28.7
2018-05-18T00:27:20.737Z,28.8
2018-05-18T00:28:10.800Z,28.7
2018-05-18T00:29:00.875Z,28.8
2018-05-18T00:29:50.153Z,28.7
2018-05-18T00:30:40.521Z,28.7
2018-05-18T00:31:30.739Z,28.7
2018-05-18T00:32:20.382Z,28.7
2018-05-18T00:33:10.714Z,28.7
2018-05-18T00:34:01.059Z,28.7
2018-05-18T00:34:51.046Z,28.7
2018-05-18T00:35:41.145Z,28.7
2018-05-18T00:36:31.491Z,28.7
2018-05-18T00:37:20.946Z,28.7
2018-05-18T00:38:11.587Z,28.7
2018-05-18T00:39:01.380Z,28.6
2018-05-18T00:39:51.810Z,28.6
2018-05-18T00:40:41.505Z,28.7
2018-05-18T00:41:32.152Z,28.6
2018-05-18T00:42:21.351Z,28.6
2018-05-18T00:43:11.679Z,28.6
2018-05-18T00:44:02.044Z,28.6
2018-05-18T00:44:51.898Z,28.6
2018-05-18T00:45:42.426Z,28.6
2018-05-18T00:46:32.215Z,28.6
2018-05-18T00:47:21.699Z,28.6
2018-05-18T00:48:12.037Z,28.6
2018-05-18T00:49:02.677Z,28.6
2018-05-18T00:49:52.167Z,28.6
2018-05-18T00:50:42.793Z,28.6
2018-05-18T00:51:32.410Z,28.6
2018-05-18T00:52:22.948Z,28.6
2018-05-18T00:53:13.020Z,28.6
2018-05-18T00:54:02.485Z,28.6
2018-05-18T00:54:52.595Z,28.6
2018-05-18T00:55:42.943Z,28.6
2018-05-18T00:56:32.464Z,28.6
2018-05-18T00:57:23.284Z,28.6
2018-05-18T00:58:13.153Z,28.6
2018-05-18T00:59:02.880Z,28.6
2018-05-18T00:59:52.928Z,28.6
2018-05-18T01:00:43.572Z,28.6
2018-05-18T01:01:33.368Z,28.6
2018-05-18T01:02:23.434Z,28.6
2018-05-18T01:03:13.190Z,28.6
2018-05-18T01:04:03.813Z,28.5
2018-05-18T01:04:53.876Z,28.5
2018-05-18T01:05:43.662Z,28.6
2018-05-18T01:06:33.791Z,28.5
2018-05-18T01:07:23.816Z,28.5
2018-05-18T01:08:13.324Z,28.5
2018-05-18T01:09:03.920Z,28.5
2018-05-18T01:09:53.728Z,28.5
2018-05-18T01:10:43.524Z,28.5
2018-05-18T01:11:34.412Z,28.5
2018-05-18T01:12:24.175Z,28.5
2018-05-18T01:13:14.535Z,28.5
2018-05-18T01:14:04.601Z,28.5
2018-05-18T01:14:54.093Z,28.5
2018-05-18T01:15:44.405Z,28.5
2018-05-18T01:16:34.266Z,28.5
2018-05-18T01:17:24.889Z,28.5
2018-05-18T01:18:14.655Z,28.5
2018-05-18T01:19:04.710Z,28.4
2018-05-18T01:19:54.514Z,28.4
2018-05-18T01:20:45.134Z,28.4
2018-05-18T01:21:34.896Z,28.4
2018-05-18T01:22:24.187Z,28.4
2018-05-18T01:23:15.032Z,28.4
2018-05-18T01:24:05.421Z,28.4
2018-05-18T01:24:54.871Z,28.4
2018-05-18T01:25:44.663Z,28.4
2018-05-18T01:26:35.058Z,28.4
2018-05-18T01:27:25.326Z,28.4
2018-05-18T01:28:15.402Z,28.4
2018-05-18T01:29:05.223Z,28.4
2018-05-18T01:29:55.543Z,28.4
2018-05-18T01:30:45.359Z,28.4
2018-05-18T01:31:35.643Z,28.4
2018-05-18T01:32:25.721Z,28.4
2018-05-18T01:33:16.108Z,28.4
2018-05-18T01:34:06.128Z,28.4
2018-05-18T01:34:56.181Z,28.4
2018-05-18T01:35:46.246Z,28.4
2018-05-18T01:36:36.358Z,28.4
2018-05-18T01:37:26.386Z,28.4
2018-05-18T01:38:15.660Z,28.4
2018-05-18T01:39:06.503Z,28.4
2018-05-18T01:39:56.311Z,28.4
2018-05-18T01:40:46.352Z,28.4
2018-05-18T01:41:36.709Z,28.4
2018-05-18T01:42:26.792Z,28.4
2018-05-18T01:43:16.563Z,28.4
2018-05-18T01:44:06.624Z,28.4
2018-05-18T01:44:56.391Z,28.4
2018-05-18T01:45:47.030Z,28.4
2018-05-18T01:46:37.081Z,28.4
2018-05-18T01:47:26.857Z,28.3
2018-05-18T01:48:17.216Z,28.3
2018-05-18T01:49:06.704Z,28.4
2018-05-18T01:49:57.330Z,28.3
2018-05-18T01:50:47.140Z,28.3
2018-05-18T01:51:36.965Z,28.3
2018-05-18T01:52:26.676Z,28.3
2018-05-18T01:53:17.340Z,28.3
2018-05-18T01:54:07.728Z,28.3
2018-05-18T01:54:57.467Z,28.3
2018-05-18T01:55:47.264Z,28.3
2018-05-18T01:56:37.306Z,28.3
2018-05-18T01:57:27.112Z,28.3
2018-05-18T01:58:17.437Z,28.3
2018-05-18T01:59:07.734Z,28.3
2018-05-18T01:59:57.552Z,28.3
2018-05-18T02:00:47.629Z,28.3
2018-05-18T02:01:38.003Z,28.3
2018-05-18T02:02:27.473Z,28.3
2018-05-18T02:03:18.434Z,28.3
2018-05-18T02:04:07.894Z,28.3
2018-05-18T02:04:57.951Z,28.3
2018-05-18T02:05:48.559Z,28.3
2018-05-18T02:06:37.832Z,28.3
2018-05-18T02:07:27.844Z,28.3
2018-05-18T02:08:18.175Z,28.3
2018-05-18T02:09:08.545Z,28.3
2018-05-18T02:09:58.862Z,28.3
2018-05-18T02:10:48.382Z,28.3
2018-05-18T02:11:38.461Z,28.3
2018-05-18T02:12:28.520Z,28.3
2018-05-18T02:13:19.165Z,28.3
2018-05-18T02:14:08.973Z,28.3
2018-05-18T02:14:59.008Z,28.3
2018-05-18T02:15:49.063Z,28.3
2018-05-18T02:16:38.552Z,28.2
2018-05-18T02:17:29.478Z,28.3
2018-05-18T02:18:19.528Z,28.3
2018-05-18T02:19:09.301Z,28.3
2018-05-18T02:19:59.407Z,28.2
2018-05-18T02:20:49.748Z,28.2
2018-05-18T02:21:39.231Z,28.2
2018-05-18T02:22:29.830Z,28.2
2018-05-18T02:23:19.918Z,28.2
2018-05-18T02:24:09.683Z,28.2
2018-05-18T02:24:59.755Z,28.2
2018-05-18T02:25:49.555Z,28.2
2018-05-18T02:26:39.887Z,28.2
2018-05-18T02:27:30.246Z,28.2
2018-05-18T02:28:19.717Z,28.2
2018-05-18T02:29:09.557Z,28.2
2018-05-18T02:30:00.174Z,28.2
2018-05-18T02:30:50.237Z,28.2
2018-05-18T02:31:40.574Z,28.2
2018-05-18T02:32:29.403Z,28.2
2018-05-18T02:33:20.137Z,28.2
2018-05-18T02:34:09.665Z,28.1
2018-05-18T02:35:00.552Z,28.1
2018-05-18T02:35:50.095Z,28.1
2018-05-18T02:36:40.096Z,28.1
2018-05-18T02:37:29.968Z,28.1
2018-05-18T02:38:20.093Z,28.1
2018-05-18T02:39:10.599Z,28.1
2018-05-18T02:40:00.703Z,28.1
2018-05-18T02:40:50.491Z,28.1
2018-05-18T02:41:40.269Z,28.1
2018-05-18T02:42:30.922Z,28.1
2018-05-18T02:43:20.685Z,28.1
2018-05-18T02:44:10.733Z,28.1
2018-05-18T02:45:01.102Z,28.1
2018-05-18T02:45:51.726Z,28.1
2018-05-18T02:46:40.660Z,28.1
2018-05-18T02:47:31.213Z,28.1
2018-05-18T02:48:21.541Z,28.1
2018-05-18T02:49:11.896Z,28.1
2018-05-18T02:50:01.984Z,28.1
2018-05-18T02:50:51.465Z,28.1
2018-05-18T02:51:41.267Z,28.1
2018-05-18T02:52:33.130Z,28.1
2018-05-18T02:53:22.229Z,28.1
2018-05-18T02:54:12.289Z,28.1
2018-05-18T02:55:02.061Z,28.1
2018-05-18T02:55:52.409Z,28.1
2018-05-18T02:56:42.453Z,28.1
2018-05-18T02:57:32.547Z,28.1
2018-05-18T02:58:22.328Z,28.1
2018-05-18T02:59:12.392Z,28.1
2018-05-18T03:00:02.755Z,28.1
2018-05-18T03:00:52.252Z,28
2018-05-18T03:01:42.598Z,28.1
2018-05-18T03:02:31.763Z,28.1
2018-05-18T03:03:22.439Z,28.1
2018-05-18T03:04:13.027Z,28
2018-05-18T03:05:02.859Z,28.1
2018-05-18T03:05:52.870Z,28
2018-05-18T03:06:42.704Z,28
2018-05-18T03:07:33.299Z,28
2018-05-18T03:08:23.120Z,28
2018-05-18T03:09:12.900Z,28
2018-05-18T03:10:02.910Z,28
2018-05-18T03:10:53.588Z,28
2018-05-18T03:11:43.613Z,28
2018-05-18T03:12:33.412Z,28
2018-05-18T03:13:23.471Z,28
2018-05-18T03:14:13.768Z,28
2018-05-18T03:15:03.951Z,28
2018-05-18T03:15:53.090Z,28
2018-05-18T03:16:43.731Z,28
2018-05-18T03:17:34.040Z,28.1
2018-05-18T03:18:23.555Z,28
2018-05-18T03:19:14.215Z,28
2018-05-18T03:20:03.724Z,28
2018-05-18T03:20:53.606Z,28
2018-05-18T03:21:43.833Z,28
2018-05-18T03:22:33.933Z,28
2018-05-18T03:23:23.518Z,28
2018-05-18T03:24:14.048Z,27.9
2018-05-18T03:25:18.596Z,27.9
2018-05-18T03:25:53.126Z,27.9
2018-05-18T03:26:44.245Z,27.9
2018-05-18T03:27:33.746Z,27.9
2018-05-18T03:28:24.400Z,27.9
2018-05-18T03:29:13.916Z,27.9
2018-05-18T03:30:04.758Z,27.9
2018-05-18T03:30:55.120Z,27.9
2018-05-18T03:31:45.140Z,27.9
2018-05-18T03:33:25.065Z,27.9
2018-05-18T03:36:45.239Z,27.8
2018-05-18T03:37:35.281Z,27.8
2018-05-18T03:38:25.614Z,27.8
2018-05-18T03:39:15.710Z,27.8
2018-05-18T03:40:05.496Z,27.7
2018-05-18T03:40:55.815Z,27.7
2018-05-18T03:41:45.345Z,27.7
2018-05-18T03:42:35.962Z,27.7
2018-05-18T03:43:25.455Z,27.7
2018-05-18T03:44:15.361Z,27.7
2018-05-18T03:45:06.135Z,27.6
2018-05-18T03:45:56.313Z,27.6
2018-05-18T03:46:45.430Z,27.6
2018-05-18T03:47:36.054Z,27.6
2018-05-18T03:48:26.153Z,27.6
2018-05-18T03:49:15.626Z,27.6
2018-05-18T03:50:06.265Z,27.6
2018-05-18T03:50:56.337Z,27.6
2018-05-18T03:51:46.661Z,27.6
2018-05-18T03:52:36.492Z,27.6
2018-05-18T03:53:26.788Z,27.6
2018-05-18T03:54:16.868Z,27.6
2018-05-18T03:55:06.650Z,27.6
2018-05-18T03:55:56.448Z,27.6
2018-05-18T03:56:46.778Z,27.5
2018-05-18T03:57:36.817Z,27.5
2018-05-18T03:58:26.886Z,27.5
2018-05-18T03:59:16.953Z,27.5
2018-05-18T04:00:07.053Z,27.5
2018-05-18T04:00:57.390Z,27.5
2018-05-18T04:01:46.875Z,27.5
2018-05-18T04:02:37.505Z,27.5
2018-05-18T04:03:27.555Z,27.5
2018-05-18T04:04:17.609Z,27.5
2018-05-18T04:05:07.401Z,27.4
2018-05-18T04:05:57.462Z,27.4
2018-05-18T04:06:47.244Z,27.4
2018-05-18T04:07:37.622Z,27.4
2018-05-18T04:08:27.393Z,27.4
2018-05-18T04:09:17.713Z,27.4
2018-05-18T04:10:08.050Z,27.4
2018-05-18T04:10:57.547Z,27.4
2018-05-18T04:11:47.626Z,27.4
2018-05-18T04:12:38.277Z,27.4
2018-05-18T04:13:27.206Z,27.4
2018-05-18T04:14:18.419Z,27.4
2018-05-18T04:15:07.689Z,27.4
2018-05-18T04:15:57.941Z,27.4
2018-05-18T04:16:48.565Z,27.4
2018-05-18T04:17:38.410Z,27.4
2018-05-18T04:18:28.719Z,27.4
2018-05-18T04:19:18.757Z,27.4
2018-05-18T04:20:08.550Z,27.4
2018-05-18T04:20:58.919Z,27.4
2018-05-18T04:21:48.691Z,27.4
2018-05-18T04:22:38.738Z,27.3
2018-05-18T04:23:28.313Z,27.3
2018-05-18T04:24:19.162Z,27.3
2018-05-18T04:25:08.706Z,27.4
2018-05-18T04:25:59.327Z,27.3
2018-05-18T04:26:49.358Z,27.3
2018-05-18T04:27:39.380Z,27.3
2018-05-18T04:28:29.484Z,27.3
2018-05-18T04:29:19.063Z,27.3
2018-05-18T04:30:10.130Z,27.3
2018-05-18T04:30:58.883Z,27.3
2018-05-18T04:31:49.430Z,27.3
2018-05-18T04:32:39.796Z,27.3
2018-05-18T04:33:29.939Z,27.3
2018-05-18T04:34:19.380Z,27.3
2018-05-18T04:35:09.964Z,27.3
2018-05-18T04:36:00.024Z,27.3
2018-05-18T04:36:50.093Z,27.3
2018-05-18T04:37:39.998Z,27.3
2018-05-18T04:38:29.394Z,27.3
2018-05-18T04:39:19.164Z,27.3
2018-05-18T04:40:10.392Z,27.3
2018-05-18T04:41:00.157Z,27.3
2018-05-18T04:41:49.951Z,27.3
2018-05-18T04:42:40.019Z,27.3
2018-05-18T04:43:30.297Z,27.3
2018-05-18T04:44:20.283Z,27.3
2018-05-18T04:45:10.468Z,27.3
2018-05-18T04:46:00.531Z,27.3
2018-05-18T04:46:50.124Z,27.3
2018-05-18T15:07:44.668Z,50.5
2018-05-18T15:08:34.488Z,50.4
2018-05-18T15:09:24.028Z,50.4
2018-05-18T15:10:14.979Z,50.4
2018-05-18T15:11:05.058Z,50.3
2018-05-18T15:11:54.759Z,50.3
2018-05-18T15:12:44.080Z,50.1
2018-05-18T15:13:34.922Z,50.1
2018-05-18T15:14:24.983Z,50
2018-05-18T15:15:14.728Z,49.9
2018-05-18T15:16:05.066Z,49.9
2018-05-18T15:16:54.884Z,49.8
2018-05-18T15:17:44.485Z,49.8
2018-05-18T15:18:35.286Z,49.6
2018-05-18T15:19:25.049Z,49.6
2018-05-18T15:20:15.747Z,49.5
2018-05-18T15:21:04.639Z,49.4
2018-05-18T15:21:54.691Z,49.3
2018-05-18T15:22:45.910Z,49.3
2018-05-18T15:23:35.448Z,49.3
2018-05-18T15:24:25.725Z,49.2
2018-05-18T15:25:15.849Z,49.1
2018-05-18T15:26:05.868Z,49
2018-05-18T15:26:55.677Z,48.9
2018-05-18T15:27:46.074Z,48.9
2018-05-18T15:28:35.857Z,48.8
2018-05-18T15:29:25.899Z,48.8
2018-05-18T15:30:16.555Z,48.7
2018-05-18T15:31:05.215Z,48.6
2018-05-18T15:31:55.581Z,48.6
2018-05-18T15:32:45.853Z,48.5
2018-05-18T15:33:36.260Z,48.4
2018-05-18T15:34:25.994Z,48.4
2018-05-18T15:35:16.896Z,48.3
2018-05-18T15:36:06.366Z,48.3
2018-05-18T15:36:56.701Z,48.2
2018-05-18T15:37:46.207Z,48.1
2018-05-18T15:38:36.614Z,48.1
2018-05-18T15:39:26.779Z,47.9
2018-05-18T15:40:17.321Z,47.9
2018-05-18T15:41:07.050Z,47.8
2018-05-18T15:41:56.612Z,47.8
2018-05-18T15:42:47.641Z,47.7
2018-05-18T15:43:37.229Z,47.6
2018-05-18T15:44:27.390Z,47.5
2018-05-18T15:45:16.825Z,47.4
2018-05-18T15:46:07.780Z,47.4
2018-05-18T15:46:57.514Z,47.3
2018-05-18T15:47:46.718Z,47.3
2018-05-18T15:48:37.925Z,47.2
2018-05-18T15:49:28.704Z,47.1
2018-05-18T15:50:17.472Z,47.1
2018-05-18T15:51:08.189Z,47
2018-05-18T15:51:57.636Z,46.9
2018-05-18T15:52:48.210Z,46.8
2018-05-18T15:53:37.216Z,46.8
2018-05-18T15:54:28.383Z,46.6
2018-05-18T15:55:18.369Z,46.6
2018-05-18T15:56:08.153Z,46.4
2018-05-18T15:56:57.981Z,46.4
2018-05-18T15:57:48.549Z,46.3
2018-05-18T15:58:37.582Z,46.2
2018-05-18T15:59:27.924Z,46.1
2018-05-18T16:00:18.759Z,46.1
2018-05-18T16:01:07.709Z,46
2018-05-18T16:01:58.625Z,45.9
2018-05-18T16:02:48.664Z,45.8
2018-05-18T16:03:38.176Z,45.8
2018-05-18T16:04:29.020Z,45.7
2018-05-18T16:05:18.331Z,45.6
2018-05-18T16:06:08.973Z,45.5
2018-05-18T16:06:58.443Z,45.4
2018-05-18T16:07:49.369Z,45.3
2018-05-18T16:08:38.859Z,45.2
2018-05-18T16:09:29.214Z,45.1
2018-05-18T16:10:18.984Z,45.1
2018-05-18T16:11:09.080Z,44.9
2018-05-18T16:11:59.643Z,44.9
2018-05-18T16:12:48.931Z,44.8
2018-05-18T16:13:39.871Z,44.7
2018-05-18T16:14:29.835Z,44.6
2018-05-18T16:15:19.424Z,44.3
2018-05-18T16:16:09.718Z,44.1
2018-05-18T16:16:59.543Z,43.8
2018-05-18T16:17:47.928Z,43.4
2018-05-18T16:18:38.246Z,43.2
2018-05-18T16:19:27.800Z,42.9
2018-05-18T16:20:17.865Z,42.8
2018-05-18T16:21:09.221Z,42.9
2018-05-18T16:21:57.932Z,42.2
2018-05-18T16:22:48.288Z,41.7
2018-05-18T16:23:38.350Z,41.3
2018-05-18T16:24:28.184Z,41.1
2018-05-18T16:25:18.490Z,40.8
2018-05-18T16:26:07.988Z,40.6
2018-05-18T16:26:58.896Z,40.4
2018-05-18T16:27:49.130Z,40.2
2018-05-18T16:28:38.433Z,40.1
2018-05-18T16:29:29.137Z,40
2018-05-18T16:30:19.178Z,39.4
2018-05-18T16:31:08.411Z,39.4
2018-05-18T16:31:58.723Z,39.3
2018-05-18T16:32:48.517Z,39.1
2018-05-18T16:33:39.157Z,39
2018-05-18T16:34:29.225Z,38.9
2018-05-18T16:35:19.532Z,39.1
2018-05-18T16:36:09.619Z,39
2018-05-18T16:36:59.356Z,38.8
2018-05-18T16:37:49.186Z,38.6
2018-05-18T16:38:39.505Z,38.3
2018-05-18T16:39:29.586Z,38.2
2018-05-18T16:40:19.907Z,38
2018-05-18T16:41:10.014Z,37.7
2018-05-18T16:41:59.765Z,37.4
2018-05-18T16:42:50.097Z,37.2
2018-05-18T16:43:39.869Z,37
2018-05-18T16:44:29.969Z,36.8
2018-05-18T16:45:20.263Z,37
2018-05-18T16:46:10.336Z,37.1
2018-05-18T16:47:00.125Z,37.1
2018-05-18T16:47:50.204Z,36.9
2018-05-18T16:48:39.958Z,36.8
2018-05-18T16:49:30.056Z,36.7
2018-05-18T16:50:20.690Z,36.6
2018-05-18T16:51:10.197Z,36.5
2018-05-18T16:52:00.274Z,36.3
2018-05-18T16:52:51.191Z,36.2
2018-05-18T16:53:40.654Z,36.1
2018-05-18T16:54:31.089Z,35.9
2018-05-18T16:55:20.796Z,35.8
2018-05-18T16:56:11.145Z,35.6
2018-05-18T16:57:00.647Z,35.6
2018-05-18T16:57:51.403Z,35.4
2018-05-18T16:58:41.346Z,35.1
2018-05-18T16:59:31.114Z,34.9
2018-05-18T17:00:20.901Z,34.8
2018-05-18T17:01:11.002Z,34.7
2018-05-18T17:02:01.340Z,34.6
2018-05-18T17:02:51.654Z,34.5
2018-05-18T17:03:40.859Z,34.4
2018-05-18T17:04:31.786Z,34.4
2018-05-18T17:05:21.036Z,34.3
2018-05-18T17:06:11.985Z,34.3
2018-05-18T17:07:01.951Z,34.4
2018-05-18T17:07:52.049Z,34.4
2018-05-18T17:08:41.247Z,34.4
2018-05-18T17:09:31.885Z,34.5
2018-05-18T17:10:22.212Z,34.6
2018-05-18T17:11:12.322Z,34.6
2018-05-18T17:12:02.082Z,34.6
2018-05-18T17:12:52.416Z,34.7
2018-05-18T17:13:42.461Z,34.8
2018-05-18T17:14:32.013Z,34.8
2018-05-18T17:15:22.325Z,34.8
2018-05-18T17:16:12.676Z,34.9
2018-05-18T17:17:02.251Z,34.9
2018-05-18T17:17:52.509Z,34.9
2018-05-18T17:18:42.841Z,34.9
2018-05-18T17:19:32.932Z,35
2018-05-18T17:20:22.963Z,35
2018-05-18T17:21:12.578Z,35.1
2018-05-18T17:22:02.842Z,35.1
2018-05-18T17:22:53.201Z,35.1
2018-05-18T17:23:42.978Z,35.1
2018-05-18T17:24:32.744Z,35.1
2018-05-18T17:25:22.813Z,35.1
2018-05-18T17:26:13.457Z,35.1
2018-05-18T17:27:02.932Z,35.1
2018-05-18T17:27:53.566Z,35.1
2018-05-18T17:28:43.629Z,35.1
2018-05-18T17:29:33.687Z,35.1
2018-05-18T17:30:23.784Z,35.1
2018-05-18T17:31:13.255Z,35.1
2018-05-18T17:32:03.633Z,35.1
2018-05-18T17:32:53.394Z,35.1
2018-05-18T17:33:43.724Z,35.1
2018-05-18T17:34:33.767Z,35.1
2018-05-18T17:35:23.871Z,35.1
2018-05-18T17:36:14.007Z,35
2018-05-18T17:37:03.986Z,35
2018-05-18T17:37:54.054Z,35
2018-05-18T17:38:44.399Z,35
2018-05-18T17:39:34.473Z,34.9
2018-05-18T17:40:24.252Z,34.9
2018-05-18T17:41:14.022Z,34.9
2018-05-18T17:42:04.642Z,34.9
2018-05-18T17:42:54.714Z,34.9
2018-05-18T17:43:44.607Z,34.9
2018-05-18T17:44:34.329Z,34.9
2018-05-18T17:45:24.961Z,34.9
2018-05-18T17:46:14.690Z,34.8
2018-05-18T17:47:04.768Z,34.8
2018-05-18T17:47:55.147Z,34.8
2018-05-18T17:48:44.614Z,34.7
2018-05-18T17:49:34.958Z,34.6
2018-05-18T17:50:24.996Z,34.6
2018-05-18T17:51:15.352Z,34.6
2018-05-18T17:52:05.163Z,34.5
2018-05-18T17:52:55.492Z,34.5
2018-05-18T17:53:45.268Z,34.4
2018-05-18T17:54:35.515Z,34.4
2018-05-18T17:55:25.397Z,34.4
2018-05-18T17:56:15.774Z,34.3
2018-05-18T17:57:05.592Z,34.3
2018-05-18T17:57:55.910Z,34.3
2018-05-18T17:58:45.940Z,34.3
2018-05-18T17:59:35.991Z,34.2
2018-05-18T18:00:25.277Z,34.2
2018-05-18T18:01:15.559Z,34.2
2018-05-18T18:02:06.212Z,34.1
2018-05-18T18:02:55.723Z,34.1
2018-05-18T18:03:45.784Z,34.1
2018-05-18T18:04:36.370Z,34.1
2018-05-18T18:05:26.464Z,34.1
2018-05-18T18:06:16.484Z,34
2018-05-18T18:07:06.595Z,34
2018-05-18T18:07:57.485Z,33.9
2018-05-18T18:08:45.854Z,33.9
2018-05-18T18:09:36.492Z,33.9
2018-05-18T18:10:26.295Z,33.9
2018-05-18T18:11:16.640Z,33.9
2018-05-18T18:12:06.947Z,33.9
2018-05-18T18:12:57.016Z,33.9
2018-05-18T18:13:46.864Z,33.8
2018-05-18T18:14:36.581Z,33.8
2018-05-18T18:15:26.656Z,33.8
2018-05-18T18:16:16.999Z,33.8
2018-05-18T18:17:06.637Z,33.8
2018-05-18T18:17:57.415Z,33.8
2018-05-18T18:18:47.506Z,33.8
2018-05-18T18:19:37.521Z,33.7
2018-05-18T18:20:27.578Z,33.7
2018-05-18T18:21:17.398Z,33.7
2018-05-18T18:22:07.743Z,33.7
2018-05-18T18:22:57.530Z,33.7
2018-05-18T18:23:47.584Z,33.7
2018-05-18T18:24:37.492Z,33.6
2018-05-18T18:25:27.772Z,33.6
2018-05-18T18:26:18.156Z,33.6
2018-05-18T18:27:07.903Z,33.6
2018-05-18T18:27:57.979Z,33.6
2018-05-18T18:28:47.955Z,33.6
2018-05-18T18:29:37.797Z,33.6
2018-05-18T18:30:27.614Z,33.6
2018-05-18T18:31:18.467Z,33.6
2018-05-18T18:32:08.283Z,33.6
2018-05-18T18:32:58.338Z,33.6
2018-05-18T18:33:48.405Z,33.5
2018-05-18T18:34:38.816Z,33.5
2018-05-18T18:35:28.842Z,33.5
2018-05-18T18:36:19.104Z,33.5
2018-05-18T18:37:09.007Z,33.5
2018-05-18T18:37:58.725Z,33.5
2018-05-18T18:38:49.104Z,33.5
2018-05-18T18:39:38.599Z,33.4
2018-05-18T18:40:28.291Z,33.4
2018-05-18T18:41:18.952Z,33.4
2018-05-18T18:42:09.336Z,33.4
2018-05-18T18:42:59.129Z,33.4
2018-05-18T18:43:49.175Z,33.4
2018-05-18T18:44:38.963Z,33.4
2018-05-18T18:45:28.736Z,33.4
2018-05-18T18:46:19.088Z,33.4
2018-05-18T18:47:09.488Z,33.4
2018-05-18T18:47:59.539Z,33.4
2018-05-18T18:48:49.907Z,33.4
2018-05-18T18:49:39.924Z,33.4
2018-05-18T18:50:30.233Z,33.4
2018-05-18T18:51:20.066Z,33.4
2018-05-18T18:52:10.621Z,33.4
2018-05-18T18:52:59.646Z,33.4
2018-05-18T18:53:50.239Z,33.3
2018-05-18T18:54:40.304Z,33.3
2018-05-18T18:55:29.498Z,33.3
2018-05-18T18:56:19.897Z,33.3
2018-05-18T18:57:09.965Z,33.3
2018-05-18T18:58:00.583Z,33.3
2018-05-18T18:58:50.134Z,33.3
2018-05-18T18:59:40.402Z,33.3
2018-05-18T19:00:30.218Z,33.3
2018-05-18T19:01:20.521Z,33.3
2018-05-18T19:02:10.588Z,33.3
2018-05-18T19:03:00.685Z,33.3
2018-05-18T19:03:50.731Z,33.3
2018-05-18T19:04:41.166Z,33.3
2018-05-18T19:05:31.177Z,33.3
2018-05-18T19:06:20.951Z,33.3
2018-05-18T19:07:10.991Z,33.3
2018-05-18T19:08:01.472Z,33.3
2018-05-18T19:08:51.426Z,33.3
2018-05-18T19:09:41.481Z,33.2
2018-05-18T19:10:31.565Z,33.3
2018-05-18T19:11:21.605Z,33.2
2018-05-18T19:12:11.390Z,33.2
2018-05-18T19:13:01.159Z,33.2
2018-05-18T19:13:51.267Z,33.2
2018-05-18T19:14:41.948Z,33.2
2018-05-18T19:15:31.860Z,33.2
2018-05-18T19:16:21.651Z,33.2
2018-05-18T19:17:10.902Z,33.1
2018-05-18T19:18:01.784Z,33.2
2018-05-18T19:18:52.239Z,33.1
2018-05-18T19:19:41.959Z,33.1
2018-05-18T19:20:32.042Z,33.1
2018-05-18T19:21:22.378Z,33.1
2018-05-18T19:22:12.485Z,33.1
2018-05-18T19:23:02.483Z,33.1
2018-05-18T19:23:51.756Z,33.1
2018-05-18T19:24:42.063Z,33.1
2018-05-18T19:25:32.116Z,33.1
2018-05-18T19:26:22.449Z,33.1
2018-05-18T19:27:12.551Z,33.1
2018-05-18T19:28:02.682Z,33.1
2018-05-18T19:28:52.675Z,33.1
2018-05-18T19:29:43.054Z,33.1
2018-05-18T19:30:32.861Z,33.1
2018-05-18T19:31:23.179Z,33.1
2018-05-18T19:32:13.255Z,33.1
2018-05-18T19:33:02.984Z,33.1
2018-05-18T19:33:53.063Z,33
2018-05-18T19:34:43.457Z,33
2018-05-18T19:35:33.141Z,33
2018-05-18T19:36:23.530Z,33
2018-05-18T19:37:13.267Z,33
2018-05-18T19:38:03.373Z,33
2018-05-18T19:38:53.161Z,33
2018-05-18T19:39:43.491Z,33
2018-05-18T19:40:33.603Z,33
2018-05-18T19:41:23.600Z,33
2018-05-18T19:42:13.700Z,33
2018-05-18T19:43:03.752Z,33
2018-05-18T19:43:53.284Z,33
2018-05-18T19:44:43.593Z,32.9
2018-05-18T19:45:33.948Z,32.9
2018-05-18T19:46:23.409Z,32.9
2018-05-18T19:47:13.801Z,32.9
2018-05-18T19:48:03.867Z,32.9
2018-05-18T19:48:54.478Z,32.9
2018-05-18T19:49:44.557Z,32.9
2018-05-18T19:50:34.304Z,32.9
2018-05-18T19:51:24.382Z,32.9
2018-05-18T19:52:14.759Z,32.9
2018-05-18T19:53:04.555Z,32.9
2018-05-18T19:53:54.909Z,32.9
2018-05-18T19:54:44.644Z,32.9
2018-05-18T19:55:34.996Z,32.9
2018-05-18T19:56:25.062Z,32.9
2018-05-18T19:57:15.352Z,32.9
2018-05-18T19:58:04.602Z,32.9
2018-05-18T19:58:54.712Z,32.9
2018-05-18T19:59:45.369Z,32.9
2018-05-18T20:00:35.359Z,32.9
2018-05-18T20:01:25.157Z,32.9
2018-05-18T20:02:15.262Z,32.9
2018-05-18T20:03:05.287Z,32.9
2018-05-18T20:03:55.341Z,32.8
2018-05-18T20:04:45.440Z,32.8
2018-05-18T20:05:35.802Z,32.8
2018-05-18T20:06:25.595Z,32.8
2018-05-18T20:07:15.413Z,32.8
2018-05-18T20:08:05.687Z,32.9
2018-05-18T20:08:55.734Z,32.8
2018-05-18T20:09:45.827Z,32.8
2018-05-18T20:10:36.111Z,32.8
2018-05-18T20:11:26.138Z,32.8
2018-05-18T20:12:15.982Z,32.8
2018-05-18T20:13:06.044Z,32.8
2018-05-18T20:13:55.541Z,32.8
2018-05-18T20:14:46.405Z,32.8
2018-05-18T20:15:36.205Z,32.8
2018-05-18T20:16:25.982Z,32.8
2018-05-18T20:17:16.336Z,32.8
2018-05-18T20:18:06.396Z,32.8
2018-05-18T20:18:55.941Z,32.8
2018-05-18T20:19:47.228Z,32.8
2018-05-18T20:20:36.863Z,32.8
2018-05-18T20:21:26.631Z,32.8
2018-05-18T20:22:16.719Z,32.8
2018-05-18T20:23:06.533Z,32.8
2018-05-18T20:23:57.144Z,32.8
2018-05-18T20:24:46.899Z,32.8
2018-05-18T20:25:36.974Z,32.8
2018-05-18T20:26:27.348Z,32.7
2018-05-18T20:27:16.812Z,32.7
2018-05-18T20:28:07.184Z,32.7
2018-05-18T20:28:57.528Z,32.7
2018-05-18T20:29:47.026Z,32.7
2018-05-18T20:30:37.652Z,32.7
2018-05-18T20:31:27.429Z,32.7
2018-05-18T20:32:17.485Z,32.7
2018-05-18T20:33:07.821Z,32.7
2018-05-18T20:33:57.141Z,32.7
2018-05-18T20:34:47.481Z,32.7
2018-05-18T20:35:37.726Z,32.7
2018-05-18T20:36:28.093Z,32.6
2018-05-18T20:37:17.867Z,32.7
2018-05-18T20:38:08.090Z,32.7
2018-05-18T20:38:57.712Z,32.6
2018-05-18T20:39:47.792Z,32.7
2018-05-18T20:40:37.837Z,32.6
2018-05-18T20:41:28.280Z,32.6
2018-05-18T20:42:18.562Z,32.6
2018-05-18T20:43:08.370Z,32.6
2018-05-18T20:43:58.142Z,32.6
2018-05-18T20:44:48.521Z,32.6
2018-05-18T20:45:37.674Z,32.7
2018-05-18T20:46:28.580Z,32.7
2018-05-18T20:47:18.923Z,32.7
2018-05-18T20:48:08.437Z,32.7
2018-05-18T20:48:58.765Z,32.7
2018-05-18T20:49:49.134Z,32.7
2018-05-18T20:50:38.968Z,32.8
2018-05-18T20:51:28.961Z,32.7
2018-05-18T20:52:19.056Z,32.8
2018-05-18T20:53:09.092Z,32.7
2018-05-18T20:53:59.200Z,32.7
2018-05-18T20:54:49.493Z,32.8
2018-05-18T20:55:39.574Z,32.8
2018-05-18T20:56:29.337Z,32.7
2018-05-18T20:57:19.740Z,32.8
2018-05-18T20:58:09.737Z,32.8
2018-05-18T20:58:59.889Z,32.8
2018-05-18T20:59:49.623Z,32.8
2018-05-18T21:00:39.645Z,32.7
2018-05-18T21:01:29.754Z,32.8
2018-05-18T21:02:19.804Z,32.8
2018-05-18T21:03:09.917Z,32.8
2018-05-18T21:03:59.916Z,32.8
2018-05-18T21:04:50.002Z,32.8
2018-05-18T21:05:40.354Z,32.8
2018-05-18T21:06:30.381Z,32.8
2018-05-18T21:07:20.187Z,32.8
2018-05-18T21:08:10.518Z,32.8
2018-05-18T21:09:00.334Z,32.8
2018-05-18T21:09:50.679Z,32.8
2018-05-18T21:10:40.726Z,32.8
2018-05-18T21:11:30.785Z,32.8
2018-05-18T21:12:19.736Z,32.8
2018-05-18T21:13:10.631Z,32.8
2018-05-18T21:14:01.011Z,32.8
2018-05-18T21:14:50.831Z,32.8
2018-05-18T21:15:40.534Z,32.8
2018-05-18T21:16:31.177Z,32.8
2018-05-18T21:17:21.041Z,32.8
2018-05-18T21:18:11.023Z,32.8
2018-05-18T21:19:01.365Z,32.8
2018-05-18T21:19:50.313Z,32.8
2018-05-18T21:20:41.253Z,32.8
2018-05-18T21:21:31.263Z,32.8
2018-05-18T21:22:21.662Z,32.8
2018-05-18T21:23:11.128Z,32.8
2018-05-18T21:24:00.909Z,32.8
2018-05-18T21:24:51.270Z,32.8
2018-05-18T21:25:41.608Z,32.8
2018-05-18T21:26:31.690Z,32.8
2018-05-18T21:27:21.158Z,32.8
2018-05-18T21:28:12.070Z,32.8
2018-05-18T21:29:01.596Z,32.8
2018-05-18T21:29:51.335Z,32.8
2018-05-18T21:30:42.290Z,32.8
2018-05-18T21:31:32.046Z,32.8
2018-05-18T21:32:22.166Z,32.8
2018-05-18T21:33:12.185Z,32.8